Aviation Digital Data Service (ADDS)

Output produced by METARs form (1310 UTC 19 July 2018)
found at http://www.aviationweather.gov/adds/metars/
 
METAR text: KAGC 191253Z 00000KT 10SM CLR 19/15 A3012 RMK AO2 SLP195 T01940150
Conditions at: KAGC (PITTSBURGH/ALLEG, PA, US) observed 1253 UTC 19 July 2018
Temperature: 19.4°C (67°F)
Dewpoint: 15.0°C (59°F) [RH = 76%]
Pressure (altimeter): 30.12 inches Hg (1020.1 mb)
[Sea-level pressure: 1019.5 mb]
Winds: calm
Visibility: 10 or more miles (16+ km)
Ceiling: at least 12,000 feet AGL
Clouds: sky clear below 12,000 feet AGL
Weather: no significant weather observed at this time

METAR text: KAGC 191153Z AUTO 04003KT 10SM CLR 17/14 A3011 RMK AO2 SLP192 T01720139 10183 20156 53005
Conditions at: KAGC (PITTSBURGH/ALLEG, PA, US) observed 1153 UTC 19 July 2018
Temperature: 17.2°C (63°F)
Dewpoint: 13.9°C (57°F) [RH = 81%]
Pressure (altimeter): 30.11 inches Hg (1019.7 mb)
[Sea-level pressure: 1019.2 mb]
Winds: from the NE (40 degrees) at 3 MPH (3 knots; 1.6 m/s)
Visibility: 10 or more miles (16+ km)
Ceiling: at least 12,000 feet AGL
Clouds: sky clear below 12,000 feet AGL
Weather: automated observation with no human augmentation;
there may or may not be significant weather present at this time

METAR text: KAGC 191053Z 06004KT 10SM CLR 16/14 A3009 RMK AO2 SLP188 T01610139
Conditions at: KAGC (PITTSBURGH/ALLEG, PA, US) observed 1053 UTC 19 July 2018
Temperature: 16.1°C (61°F)
Dewpoint: 13.9°C (57°F) [RH = 87%]
Pressure (altimeter): 30.09 inches Hg (1019.0 mb)
[Sea-level pressure: 1018.8 mb]
Winds: from the ENE (60 degrees) at 5 MPH (4 knots; 2.1 m/s)
Visibility: 10 or more miles (16+ km)
Ceiling: at least 12,000 feet AGL
Clouds: sky clear below 12,000 feet AGL
Weather: no significant weather observed at this time

METAR text: KAGC 190953Z 04003KT 10SM CLR 16/13 A3009 RMK AO2 SLP187 T01610133
Conditions at: KAGC (PITTSBURGH/ALLEG, PA, US) observed 0953 UTC 19 July 2018
Temperature: 16.1°C (61°F)
Dewpoint: 13.3°C (56°F) [RH = 83%]
Pressure (altimeter): 30.09 inches Hg (1019.0 mb)
[Sea-level pressure: 1018.7 mb]
Winds: from the NE (40 degrees) at 3 MPH (3 knots; 1.6 m/s)
Visibility: 10 or more miles (16+ km)
Ceiling: at least 12,000 feet AGL
Clouds: sky clear below 12,000 feet AGL
Weather: no significant weather observed at this time

METAR text: KAGC 190853Z 36003KT 10SM FEW055 17/13 A3009 RMK AO2 SLP187 T01670133 51003
Conditions at: KAGC (PITTSBURGH/ALLEG, PA, US) observed 0853 UTC 19 July 2018
Temperature: 16.7°C (62°F)
Dewpoint: 13.3°C (56°F) [RH = 80%]
Pressure (altimeter): 30.09 inches Hg (1019.0 mb)
[Sea-level pressure: 1018.7 mb]
Winds: from the N (360 degrees) at 3 MPH (3 knots; 1.6 m/s)
Visibility: 10 or more miles (16+ km)
Ceiling: at least 12,000 feet AGL
Clouds: few clouds at 5500 feet AGL
Weather: no significant weather observed at this time

METAR text: KAGC 190753Z 00000KT 10SM SCT055 18/13 A3009 RMK AO2 SLP185 T01780133
Conditions at: KAGC (PITTSBURGH/ALLEG, PA, US) observed 0753 UTC 19 July 2018
Temperature: 17.8°C (64°F)
Dewpoint: 13.3°C (56°F) [RH = 75%]
Pressure (altimeter): 30.09 inches Hg (1019.0 mb)
[Sea-level pressure: 1018.5 mb]
Winds: calm
Visibility: 10 or more miles (16+ km)
Ceiling: at least 12,000 feet AGL
Clouds: scattered clouds at 5500 feet AGL
Weather: no significant weather observed at this time

METAR text: KAGC 190653Z 04003KT 10SM CLR 18/13 A3009 RMK AO2 SLP184 T01780133
Conditions at: KAGC (PITTSBURGH/ALLEG, PA, US) observed 0653 UTC 19 July 2018
Temperature: 17.8°C (64°F)
Dewpoint: 13.3°C (56°F) [RH = 75%]
Pressure (altimeter): 30.09 inches Hg (1019.0 mb)
[Sea-level pressure: 1018.4 mb]
Winds: from the NE (40 degrees) at 3 MPH (3 knots; 1.6 m/s)
Visibility: 10 or more miles (16+ km)
Ceiling: at least 12,000 feet AGL
Clouds: sky clear below 12,000 feet AGL
Weather: no significant weather observed at this time

METAR text: KAGC 190553Z 03003KT 10SM CLR 18/13 A3008 RMK AO2 SLP183 T01830133 10239 20183 51007
Conditions at: KAGC (PITTSBURGH/ALLEG, PA, US) observed 0553 UTC 19 July 2018
Temperature: 18.3°C (65°F)
Dewpoint: 13.3°C (56°F) [RH = 73%]
Pressure (altimeter): 30.08 inches Hg (1018.7 mb)
[Sea-level pressure: 1018.3 mb]
Winds: from the NNE (30 degrees) at 3 MPH (3 knots; 1.6 m/s)
Visibility: 10 or more miles (16+ km)
Ceiling: at least 12,000 feet AGL
Clouds: sky clear below 12,000 feet AGL
Weather: no significant weather observed at this time

METAR text: KAGC 190453Z 01003KT 10SM CLR 19/13 A3008 RMK AO2 SLP182 T01890133 402670156
Conditions at: KAGC (PITTSBURGH/ALLEG, PA, US) observed 0453 UTC 19 July 2018
Temperature: 18.9°C (66°F)
Dewpoint: 13.3°C (56°F) [RH = 70%]
Pressure (altimeter): 30.08 inches Hg (1018.7 mb)
[Sea-level pressure: 1018.2 mb]
Winds: from the N (10 degrees) at 3 MPH (3 knots; 1.6 m/s)
Visibility: 10 or more miles (16+ km)
Ceiling: at least 12,000 feet AGL
Clouds: sky clear below 12,000 feet AGL
Weather: no significant weather observed at this time

METAR text: KAGC 190353Z 35005KT 10SM CLR 19/13 A3007 RMK AO2 SLP179 T01890128
Conditions at: KAGC (PITTSBURGH/ALLEG, PA, US) observed 0353 UTC 19 July 2018
Temperature: 18.9°C (66°F)
Dewpoint: 12.8°C (55°F) [RH = 68%]
Pressure (altimeter): 30.07 inches Hg (1018.4 mb)
[Sea-level pressure: 1017.9 mb]
Winds: from the N (350 degrees) at 6 MPH (5 knots; 2.6 m/s)
Visibility: 10 or more miles (16+ km)
Ceiling: at least 12,000 feet AGL
Clouds: sky clear below 12,000 feet AGL
Weather: no significant weather observed at this time

METAR text: KAGC 190253Z 30005KT 10SM CLR 21/12 A3006 RMK AO2 SLP177 T02110117 53010
Conditions at: KAGC (PITTSBURGH/ALLEG, PA, US) observed 0253 UTC 19 July 2018
Temperature: 21.1°C (70°F)
Dewpoint: 11.7°C (53°F) [RH = 55%]
Pressure (altimeter): 30.06 inches Hg (1018.0 mb)
[Sea-level pressure: 1017.7 mb]
Winds: from the WNW (300 degrees) at 6 MPH (5 knots; 2.6 m/s)
Visibility: 10 or more miles (16+ km)
Ceiling: at least 12,000 feet AGL
Clouds: sky clear below 12,000 feet AGL
Weather: no significant weather observed at this time

METAR text: KAGC 190153Z 29004KT 10SM 22/12 A3005 RMK AO2 SLP172 T02170117 $
Conditions at: KAGC (PITTSBURGH/ALLEG, PA, US) observed 0153 UTC 19 July 2018
Temperature: 21.7°C (71°F)
Dewpoint: 11.7°C (53°F) [RH = 53%]
Pressure (altimeter): 30.05 inches Hg (1017.7 mb)
[Sea-level pressure: 1017.2 mb]
Winds: from the WNW (290 degrees) at 5 MPH (4 knots; 2.1 m/s)
Visibility: 10 or more miles (16+ km)
Ceiling: unknown
Clouds: missing
Weather:
SOME DATA ABOVE MAY BE INACCURATE!!!
"$" is an indication the sensor requires maintenance

METAR text: KAGC 190053Z 34003KT 10SM CLR 23/12 A3003 RMK AO2 SLP167 T02280122
Conditions at: KAGC (PITTSBURGH/ALLEG, PA, US) observed 0053 UTC 19 July 2018
Temperature: 22.8°C (73°F)
Dewpoint: 12.2°C (54°F) [RH = 51%]
Pressure (altimeter): 30.03 inches Hg (1017.0 mb)
[Sea-level pressure: 1016.7 mb]
Winds: from the NNW (340 degrees) at 3 MPH (3 knots; 1.6 m/s)
Visibility: 10 or more miles (16+ km)
Ceiling: at least 12,000 feet AGL
Clouds: sky clear below 12,000 feet AGL
Weather: no significant weather observed at this time

METAR text: KAGC 182353Z 36003KT 10SM CLR 23/12 A3003 RMK AO2 SLP166 T02330122 10267 20233 57002
Conditions at: KAGC (PITTSBURGH/ALLEG, PA, US) observed 2353 UTC 18 July 2018
Temperature: 23.3°C (74°F)
Dewpoint: 12.2°C (54°F) [RH = 50%]
Pressure (altimeter): 30.03 inches Hg (1017.0 mb)
[Sea-level pressure: 1016.6 mb]
Winds: from the N (360 degrees) at 3 MPH (3 knots; 1.6 m/s)
Visibility: 10 or more miles (16+ km)
Ceiling: at least 12,000 feet AGL
Clouds: sky clear below 12,000 feet AGL
Weather: no significant weather observed at this time

METAR text: KAGC 182253Z 00000KT 10SM OVC060 26/12 A3003 RMK AO2 SLP167 T02560122
Conditions at: KAGC (PITTSBURGH/ALLEG, PA, US) observed 2253 UTC 18 July 2018
Temperature: 25.6°C (78°F)
Dewpoint: 12.2°C (54°F) [RH = 43%]
Pressure (altimeter): 30.03 inches Hg (1017.0 mb)
[Sea-level pressure: 1016.7 mb]
Winds: calm
Visibility: 10 or more miles (16+ km)
Ceiling: 6000 feet AGL
Clouds: overcast cloud deck at 6000 feet AGL
Weather: no significant weather observed at this time

METAR text: KAGC 182153Z 00000KT 10SM SCT060 24/11 A3003 RMK AO2 SLP168 T02440111
Conditions at: KAGC (PITTSBURGH/ALLEG, PA, US) observed 2153 UTC 18 July 2018
Temperature: 24.4°C (76°F)
Dewpoint: 11.1°C (52°F) [RH = 43%]
Pressure (altimeter): 30.03 inches Hg (1017.0 mb)
[Sea-level pressure: 1016.8 mb]
Winds: calm
Visibility: 10 or more miles (16+ km)
Ceiling: at least 12,000 feet AGL
Clouds: scattered clouds at 6000 feet AGL
Weather: no significant weather observed at this time

METAR text: KAGC 182053Z VRB04KT 10SM BKN060 26/12 A3003 RMK AO2 SLP168 T02560122 58009
Conditions at: KAGC (PITTSBURGH/ALLEG, PA, US) observed 2053 UTC 18 July 2018
Temperature: 25.6°C (78°F)
Dewpoint: 12.2°C (54°F) [RH = 43%]
Pressure (altimeter): 30.03 inches Hg (1017.0 mb)
[Sea-level pressure: 1016.8 mb]
Winds: variable direction winds at 5 MPH (4 knots; 2.1 m/s)
Visibility: 10 or more miles (16+ km)
Ceiling: 6000 feet AGL
Clouds: broken clouds at 6000 feet AGL
Weather: no significant weather observed at this time

METAR text: KAGC 181953Z VRB05KT 10SM SCT065 26/13 A3005 RMK AO2 SLP173 T02560128
Conditions at: KAGC (PITTSBURGH/ALLEG, PA, US) observed 1953 UTC 18 July 2018
Temperature: 25.6°C (78°F)
Dewpoint: 12.8°C (55°F) [RH = 45%]
Pressure (altimeter): 30.05 inches Hg (1017.7 mb)
[Sea-level pressure: 1017.3 mb]
Winds: variable direction winds at 6 MPH (5 knots; 2.6 m/s)
Visibility: 10 or more miles (16+ km)
Ceiling: at least 12,000 feet AGL
Clouds: scattered clouds at 6500 feet AGL
Weather: no significant weather observed at this time

METAR text: KAGC 181853Z 00000KT 10SM FEW060 25/13 A3006 RMK AO2 SLP176 T02500128
Conditions at: KAGC (PITTSBURGH/ALLEG, PA, US) observed 1853 UTC 18 July 2018
Temperature: 25.0°C (77°F)
Dewpoint: 12.8°C (55°F) [RH = 47%]
Pressure (altimeter): 30.06 inches Hg (1018.0 mb)
[Sea-level pressure: 1017.6 mb]
Winds: calm
Visibility: 10 or more miles (16+ km)
Ceiling: at least 12,000 feet AGL
Clouds: few clouds at 6000 feet AGL
Weather: no significant weather observed at this time

METAR text: KAGC 181753Z 33007KT 300V360 10SM FEW050 25/13 A3006 RMK AO2 SLP176 T02500128 10250 20183 58005
Conditions at: KAGC (PITTSBURGH/ALLEG, PA, US) observed 1753 UTC 18 July 2018
Temperature: 25.0°C (77°F)
Dewpoint: 12.8°C (55°F) [RH = 47%]
Pressure (altimeter): 30.06 inches Hg (1018.0 mb)
[Sea-level pressure: 1017.6 mb]
Winds: from the NNW (330 degrees) at 8 MPH (7 knots; 3.6 m/s)
Visibility: 10 or more miles (16+ km)
Ceiling: at least 12,000 feet AGL
Clouds: few clouds at 5000 feet AGL
Weather: no significant weather observed at this time

METAR text: KAGC 181653Z 32006KT 10SM BKN050 22/13 A3008 RMK AO2 SLP182 T02220128
Conditions at: KAGC (PITTSBURGH/ALLEG, PA, US) observed 1653 UTC 18 July 2018
Temperature: 22.2°C (72°F)
Dewpoint: 12.8°C (55°F) [RH = 55%]
Pressure (altimeter): 30.08 inches Hg (1018.7 mb)
[Sea-level pressure: 1018.2 mb]
Winds: from the NW (320 degrees) at 7 MPH (6 knots; 3.1 m/s)
Visibility: 10 or more miles (16+ km)
Ceiling: 5000 feet AGL
Clouds: broken clouds at 5000 feet AGL
Weather: no significant weather observed at this time

METAR text: KAGC 181553Z 36006KT 10SM SCT024 23/12 A3009 RMK AO2 SLP185 T02280122
Conditions at: KAGC (PITTSBURGH/ALLEG, PA, US) observed 1553 UTC 18 July 2018
Temperature: 22.8°C (73°F)
Dewpoint: 12.2°C (54°F) [RH = 51%]
Pressure (altimeter): 30.09 inches Hg (1019.0 mb)
[Sea-level pressure: 1018.5 mb]
Winds: from the N (360 degrees) at 7 MPH (6 knots; 3.1 m/s)
Visibility: 10 or more miles (16+ km)
Ceiling: at least 12,000 feet AGL
Clouds: scattered clouds at 2400 feet AGL
Weather: no significant weather observed at this time

METAR text: KAGC 181453Z VRB05KT 10SM SCT024 20/13 A3008 RMK AO2 SLP183 T02000133 50005
Conditions at: KAGC (PITTSBURGH/ALLEG, PA, US) observed 1453 UTC 18 July 2018
Temperature: 20.0°C (68°F)
Dewpoint: 13.3°C (56°F) [RH = 65%]
Pressure (altimeter): 30.08 inches Hg (1018.7 mb)
[Sea-level pressure: 1018.3 mb]
Winds: variable direction winds at 6 MPH (5 knots; 2.6 m/s)
Visibility: 10 or more miles (16+ km)
Ceiling: at least 12,000 feet AGL
Clouds: scattered clouds at 2400 feet AGL
Weather: no significant weather observed at this time

METAR text: KAGC 181353Z 35003KT 10SM CLR 19/15 A3008 RMK AO2 SLP184 T01940150
Conditions at: KAGC (PITTSBURGH/ALLEG, PA, US) observed 1353 UTC 18 July 2018
Temperature: 19.4°C (67°F)
Dewpoint: 15.0°C (59°F) [RH = 76%]
Pressure (altimeter): 30.08 inches Hg (1018.7 mb)
[Sea-level pressure: 1018.4 mb]
Winds: from the N (350 degrees) at 3 MPH (3 knots; 1.6 m/s)
Visibility: 10 or more miles (16+ km)
Ceiling: at least 12,000 feet AGL
Clouds: sky clear below 12,000 feet AGL
Weather: no significant weather observed at this time